Terminal Aerodrome Forecast
Issued by NWS

Home | Current Version | Previous Version | Text Only | Print | Product List | Glossary On
Versions: 1 2 3 4 5 6 7 8 9 10 11 12 13 14 15
000
FTAK31 PAFA 231356 AAA
TAFAUN
TAF AMD
PAUN 231356Z 2314/2412 22012KT P6SM SCT015 OVC040
     FM231500 24014G22KT P6SM -SHRA BKN015 OVC025
     FM231900 21020G30KT 3SM -RA BR BKN009 OVC025
     FM240400 25018G28KT 5SM -SHRA OVC015=

USA.gov is the U.S. government's official web portal to all federal, state and local government web resources and services.